CodeNameFirst purchased atOnCurrent priceGain/lossTotal invested
MMM 3M Co $178.15 $178.15 0% $0.00
AOS A. O. Smith Corp $45.43 $45.43 0% $0.00
ABT Abbott Laboratories $90.40 $90.40 0% $0.00
ABBV AbbVie Inc $83.54 $83.54 0% $0.00
ABMD ABIOMED, Inc. $182.98 $182.98 0% $0.00
ACN Accenture Plc $208.57 $208.57 0% $0.00
ATVI Activision Blizzard, Inc. $60.70 2020-01-08 09:51:01 $59.40 -2.14% $607.00
ADBE Adobe Inc $351.37 2020-01-08 09:51:01 $351.37 0% $0.00
AAP Advance Auto Parts, Inc. $141.68 2020-01-08 09:51:01 $141.68 0% $0.00
AMD Advanced Micro Devices, Inc. $47.67 2020-01-08 09:51:27 $50.35 5.62% $476.70
AES AES Corp $20.38 2020-01-08 09:51:27 $20.38 0% $0.00
AMG Affiliated Managers Group, Inc. $82.91 2020-01-08 09:51:27 $82.91 0% $0.00
AFL AFLAC Incorporated $52.39 2020-01-08 09:51:27 $52.39 0% $0.00
A Agilent Technologies Inc $88.26 2020-01-08 09:51:27 $88.26 0% $0.00
APD Air Products & Chemicals, Inc. $243.95 2020-01-08 09:51:27 $243.95 0% $0.00
AKAM Akamai Technologies, Inc. $95.52 2020-01-08 09:51:27 $95.52 0% $0.00
ALK Alaska Air Group, Inc. $66.72 2020-01-08 09:51:27 $66.72 0% $0.00
ALB Albemarle Corporation $81.18 2020-01-08 09:51:27 $81.18 0% $0.00
ARE Alexandria Real Estate Equities Inc $164.66 2020-01-08 09:51:27 $164.66 0% $0.00
ALXN Alexion Pharmaceuticals, Inc. $105.27 2020-01-08 09:51:27 $105.27 0% $0.00
ALGN Align Technology, Inc. $269.98 2020-01-08 09:51:27 $269.98 0% $0.00
ALLE Allegion PLC $128.00 2020-01-08 09:51:27 $128.00 0% $0.00
AGN Allergan plc $188.19 2020-01-08 09:51:27 $188.19 0% $0.00
ADS Alliance Data Systems Corporation $107.40 2020-01-08 09:51:27 $107.40 0% $0.00
LNT Alliant Energy Corporation $58.93 2020-01-08 09:51:27 $58.93 0% $0.00
ALL Allstate Corp $118.28 2020-01-08 09:51:27 $118.28 0% $0.00
GOOGL Alphabet Inc Class A $1,466.17 2020-01-08 09:51:27 $1,466.17 0% $0.00
GOOG Alphabet Inc Class C $1,466.71 2020-01-08 09:51:27 $1,466.71 0% $0.00
MO Altria Group Inc $50.25 2020-01-08 09:51:27 $50.25 0% $0.00
AMZN Amazon.com, Inc. $1,847.84 2020-01-02 05:40:03 $1,861.64 0.75% $1,847.84
AEE Ameren Corp $80.39 2020-01-02 05:40:03 $80.39 0% $0.00
AAL American Airlines Group Inc $27.64 2020-01-02 05:40:03 $27.64 0% $0.00
AEP American Electric Power Company Inc $102.16 2020-01-02 05:40:03 $102.16 0% $0.00
AXP American Express Company $135.11 2020-01-02 05:40:03 $135.11 0% $0.00
AIG American International Group Inc $51.06 2020-01-02 05:40:03 $51.06 0% $0.00
AMT American Tower Corp $237.52 2020-01-02 05:40:03 $237.52 0% $0.00
AWK American Water Works Company Inc $135.78 2020-01-02 05:40:03 $135.78 0% $0.00
AMP Ameriprise Financial, Inc. $167.57 2020-01-02 05:40:03 $167.57 0% $0.00
ABC AmerisourceBergen Corp. $88.92 2020-01-02 05:40:03 $88.92 0% $0.00
AME AMETEK, Inc. $99.57 2020-01-02 05:40:03 $99.57 0% $0.00
AMGN Amgen, Inc. $225.59 2020-01-02 05:40:03 $225.59 0% $0.00
APH Amphenol Corporation $105.36 2020-01-02 05:40:03 $105.36 0% $0.00
APC Anadarko Petroleum Corporation $0.05 2020-01-02 05:40:03 $0.05 0% $0.00
ADI Analog Devices, Inc. $117.57 2020-01-02 05:40:03 $117.57 0% $0.00
ANSS ANSYS, Inc. $277.34 2020-01-02 05:40:03 $277.34 0% $0.00
ANTM Anthem Inc $297.28 2020-01-02 05:40:03 $297.28 0% $0.00
AON Aon PLC $213.42 2020-01-02 05:40:03 $213.42 0% $0.00
APA Apache Corporation $29.98 2020-01-02 05:40:03 $29.98 0% $0.00
AIV Apartment Investment and Management Co $54.02 2020-01-02 05:40:03 $54.02 0% $0.00
AAPL Apple Inc. $318.31 2020-01-02 05:40:03 $318.31 0% $0.00
AMAT Applied Materials, Inc. $61.70 2020-01-08 09:52:30 $62.00 0.49% $308.50
APTV Aptiv PLC $91.54 2020-01-08 09:52:30 $91.54 0% $0.00
ADM Archer Daniels Midland Co $44.30 2020-01-08 09:52:30 $44.30 0% $0.00
ARNC Arconic Inc $29.11 2020-01-08 09:52:30 $29.11 0% $0.00
ANET Arista Networks Inc $238.05 2020-01-08 09:52:30 $238.05 0% $0.00
AJG Arthur J Gallagher & Co $96.86 2020-01-08 09:52:30 $96.86 0% $0.00
AIZ Assurant, Inc. $129.18 2020-01-08 09:52:30 $129.18 0% $0.00
T AT&T Inc. $38.50 2020-01-08 09:52:30 $38.50 0% $0.00
ADSK Autodesk, Inc. $199.19 2020-01-08 09:52:30 $199.19 0% $0.00
ADP Automatic Data Processing $177.21 2020-01-08 09:52:30 $177.21 0% $0.00
AZO AutoZone, Inc. $1,140.23 2020-01-08 09:52:30 $1,140.23 0% $0.00
AVB AvalonBay Communities Inc $219.33 2020-01-08 09:52:30 $219.33 0% $0.00
AVY Avery Dennison Corp $129.68 2020-01-08 09:52:30 $129.68 0% $0.00
BHGE Baker Hughes A GE Co $21.29 2020-01-08 09:52:30 $21.29 0% $0.00
BLL Ball Corporation $71.93 2020-01-08 09:52:30 $71.93 0% $0.00
BAC Bank of America Corp $33.54 2020-01-08 09:52:30 $33.54 0% $0.00
BK Bank of New York Mellon Corp $45.95 2020-01-08 09:52:30 $45.95 0% $0.00
BAX Baxter International Inc $90.78 2020-01-08 09:52:30 $90.78 0% $0.00
BBT BB&T Corporation $0.36 2020-01-08 09:52:30 $0.36 0% $0.00
BDX Becton Dickinson and Co $278.25 2020-01-08 09:52:30 $278.25 0% $0.00
BRK.B Berkshire Hathaway Inc. Class B $226.86 2020-01-08 09:52:30 $226.86 0% $0.00
BBY Best Buy Co Inc $89.44 2020-01-08 09:52:30 $89.44 0% $0.00
BIIB Biogen Inc $278.14 2020-01-08 09:52:30 $278.14 0% $0.00
BTC Bitcoin $7,108.87 2020-01-02 00:49:11 $8,624.61 21.32% $7,108.87
BLK BlackRock, Inc. $536.84 2020-01-02 00:49:11 $536.84 0% $0.00
BA Boeing Co $324.17 2020-01-17 15:06:09 $323.05 -0.35% $9,868.47
BKNG Booking Holdings Inc $1,962.96 2020-01-17 15:06:09 $1,962.96 0% $0.00
BWA BorgWarner Inc. $39.24 2020-01-17 15:06:09 $39.24 0% $0.00
BXP Boston Properties, Inc. $142.01 2020-01-17 15:06:09 $142.01 0% $0.00
BSX Boston Scientific Corporation $43.21 2020-01-17 15:06:09 $43.21 0% $0.00
BHF Brighthouse Financial Inc $40.75 2020-01-17 15:06:09 $40.75 0% $0.00
BMY Bristol-Myers Squibb Co $64.16 2020-01-17 15:06:09 $64.16 0% $0.00
AVGO Broadcom Inc $324.00 2020-01-17 15:06:09 $324.00 0% $0.00
BR Broadridge Financial Solutions, Inc. $131.03 2020-01-17 15:06:09 $131.03 0% $0.00
BF.B Brown-Forman Corporation Class B $71.79 2020-01-17 15:06:09 $71.79 0% $0.00
CHRW C.H. Robinson Worldwide Inc $79.62 2020-01-17 15:06:09 $79.62 0% $0.00
COG Cabot Oil & Gas Corporation $14.64 2020-01-17 15:06:09 $14.64 0% $0.00
CDNS Cadence Design Systems Inc $74.58 2020-01-17 15:06:09 $74.58 0% $0.00
CPB Campbell Soup Company $48.79 2020-01-17 15:06:09 $48.79 0% $0.00
COF Capital One Financial Corp. $104.30 2020-01-17 15:06:09 $104.30 0% $0.00
CAH Cardinal Health Inc $53.82 2020-01-17 15:06:09 $53.82 0% $0.00
KMX CarMax, Inc $96.73 2020-01-17 15:06:09 $96.73 0% $0.00
CCL Carnival Corp $47.52 2020-01-17 15:06:09 $47.52 0% $0.00
CAT Caterpillar Inc. $140.38 2020-01-17 15:06:09 $140.38 0% $0.00
CBOE Cboe Global Markets Inc $119.81 2020-01-17 15:06:09 $119.81 0% $0.00
CBRE CBRE Group Inc $60.77 2020-01-17 15:06:09 $60.77 0% $0.00
CBS CBS Corporation Common Stock $0.13 2020-01-17 15:06:09 $0.13 0% $0.00
CNC Centene Corp $66.61 2020-01-17 15:06:09 $66.61 0% $0.00
CNP CenterPoint Energy, Inc. $26.46 2020-01-17 15:06:09 $26.46 0% $0.00
CTL Centurylink Inc $14.71 2020-01-17 15:06:09 $14.71 0% $0.00
CERN Cerner Corporation $74.46 2020-01-17 15:06:09 $74.46 0% $0.00
CF CF Industries Holdings, Inc. $40.93 2020-01-17 15:06:09 $40.93 0% $0.00
SCHW Charles Schwab Corporation Common Stock $47.15 2020-01-17 15:06:09 $47.15 0% $0.00
CHTR Charter Communications Inc $504.67 2020-01-17 15:06:09 $504.67 0% $0.00
CVX Chevron Corporation $111.85 2020-01-17 15:06:09 $111.85 0% $0.00
CMG Chipotle Mexican Grill, Inc. $869.71 2020-01-17 15:06:09 $869.71 0% $0.00
CB Chubb Ltd $152.01 2020-01-17 15:06:09 $152.01 0% $0.00
CHD Church & Dwight Co., Inc. $71.31 2020-01-17 15:06:09 $71.31 0% $0.00
CI Cigna Holding Co $206.01 2020-01-17 15:06:09 $206.01 0% $0.00
XEC Cimarex Energy Co $47.15 2020-01-17 15:06:09 $47.15 0% $0.00
CINF Cincinnati Financial Corporation $106.02 2020-01-17 15:06:09 $106.02 0% $0.00
CTAS Cintas Corporation $283.44 2020-01-17 15:06:09 $283.44 0% $0.00
CSCO Cisco Systems, Inc. $48.85 2020-01-17 15:06:09 $48.85 0% $0.00
C Citigroup Inc $78.42 2020-01-17 15:06:09 $78.42 0% $0.00
CFG Citizens Financial Group Inc $39.13 2020-01-17 15:06:09 $39.13 0% $0.00
CTXS Citrix Systems, Inc. $128.26 2020-01-17 15:06:09 $128.26 0% $0.00
CLX Clorox Co $158.28 2020-01-17 15:06:09 $158.28 0% $0.00
CME CME Group Inc $209.24 2020-01-17 15:06:09 $209.24 0% $0.00
CMS CMS Energy Corporation $67.49 2020-01-17 15:06:09 $67.49 0% $0.00
CTSH Cognizant Technology Solutions Corp $62.42 2020-01-17 15:06:09 $62.42 0% $0.00
CL Colgate-Palmolive Company $70.30 2020-01-17 15:06:09 $70.30 0% $0.00
CMCSA Comcast Corporation $44.59 2020-01-17 15:06:09 $44.59 0% $0.00
CMA Comerica Incorporated $64.73 2020-01-17 15:06:09 $64.73 0% $0.00
CAG Conagra Brands Inc $32.28 2020-01-17 15:06:09 $32.28 0% $0.00
CXO Concho Resources Inc $82.55 2020-01-17 15:06:09 $82.55 0% $0.00
COP ConocoPhillips $62.62 2020-01-17 15:06:09 $62.62 0% $0.00
ED Consolidated Edison, Inc. $93.61 2020-01-17 15:06:09 $93.61 0% $0.00
STZ Constellation Brands, Inc. Class A $191.56 2020-01-17 15:06:09 $191.56 0% $0.00
COO Cooper Companies Inc $352.36 2020-01-17 15:06:09 $352.36 0% $0.00
CPRT Copart, Inc. $100.29 2020-01-17 15:06:09 $100.29 0% $0.00
GLW Corning Incorporated $29.36 2020-01-17 15:06:09 $29.36 0% $0.00
COST Costco Wholesale Corporation $310.51 2020-01-17 15:06:09 $310.51 0% $0.00
COTY Coty Inc $10.54 2020-01-17 15:06:09 $10.54 0% $0.00
CCI CROWN CASTLE IN/SH SH $149.90 2020-01-17 15:06:09 $149.90 0% $0.00
CSX CSX Corporation $76.70 2020-01-17 15:06:09 $76.70 0% $0.00
CMI Cummins Inc. $169.15 2020-01-17 15:06:09 $169.15 0% $0.00
CVS CVS Health Corp $72.49 2020-01-08 09:53:36 $71.43 -1.46% $144.98
DHI D. R. Horton Inc $58.51 2020-01-08 09:53:36 $58.51 0% $0.00
DHR Danaher Corporation $162.25 2020-01-08 09:53:36 $162.25 0% $0.00
DRI Darden Restaurants, Inc. $117.09 2020-01-08 09:53:36 $117.09 0% $0.00
DVA Davita Inc $83.19 2020-01-08 09:53:36 $83.19 0% $0.00
DE Deere & Company $170.12 2020-01-08 09:53:36 $170.12 0% $0.00
DAL Delta Air Lines, Inc. $58.81 2020-01-08 09:53:36 $58.81 0% $0.00
XRAY DENTSPLY SIRONA Inc $59.66 2020-01-08 09:53:36 $59.66 0% $0.00
DVN Devon Energy Corp $23.95 2020-01-08 09:53:36 $23.95 0% $0.00
FANG Diamondback Energy Inc $82.84 2020-01-08 09:53:36 $82.84 0% $0.00
DLR DIGITAL RLTY TR/SH $128.26 2020-01-08 09:53:36 $128.26 0% $0.00
DFS Discover Financial Services $76.29 2020-01-08 09:53:36 $76.29 0% $0.00
DISCA DISCOVERY COMMUNICATIONS INC. Common Stock $30.32 2020-01-08 09:53:36 $30.32 0% $0.00
DISCK Discovery Inc Series C $28.65 2020-01-08 09:53:36 $28.65 0% $0.00
DISH DISH Network Corp $36.74 2020-01-08 09:53:36 $36.74 0% $0.00
DG Dollar General Corp. $154.34 2020-01-08 09:53:36 $154.34 0% $0.00
DLTR Dollar Tree, Inc. $87.71 2020-01-08 09:53:36 $87.71 0% $0.00
D Dominion Energy Inc $84.00 2020-01-08 09:53:36 $84.00 0% $0.00
DOV Dover Corp $117.11 2020-01-08 09:53:36 $117.11 0% $0.00
DWDP DowDuPont Inc $30.52 2020-01-08 09:53:36 $30.52 0% $0.00
DTE DTE Energy Co $132.76 2020-01-08 09:53:36 $132.76 0% $0.00
DUK Duke Energy Corp $96.28 2020-01-08 09:53:36 $96.28 0% $0.00
DRE Duke Realty Corp $36.10 2020-01-08 09:53:36 $36.10 0% $0.00
DXC DXC Technology Co $34.48 2020-01-08 09:53:36 $34.48 0% $0.00
ETFC E*TRADE Financial Corp $45.63 2020-01-08 09:53:36 $45.63 0% $0.00
EMN Eastman Chemical Company $73.17 2020-01-08 09:53:36 $73.17 0% $0.00
ETN Eaton Corporation PLC $96.84 2020-01-08 09:53:36 $96.84 0% $0.00
EBAY eBay Inc $36.11 2020-01-02 05:39:26 $35.36 -2.08% $361.10
ECL Ecolab Inc. $198.01 2020-01-02 05:39:26 $198.01 0% $0.00
EIX Edison International $76.92 2020-01-02 05:39:26 $76.92 0% $0.00
EW Edwards Lifesciences Corp $230.45 2020-01-02 05:39:26 $230.45 0% $0.00
EA Electronic Arts Inc. $112.33 2020-01-02 05:39:26 $112.33 0% $0.00
LLY Eli Lilly And Co $139.07 2020-01-02 05:39:26 $139.07 0% $0.00
EMR Emerson Electric Co. $76.70 2020-01-02 05:39:26 $76.70 0% $0.00
ETR Entergy Corporation $130.73 2020-01-02 05:39:26 $130.73 0% $0.00
EOG EOG Resources Inc $79.85 2020-01-02 05:39:26 $79.85 0% $0.00
EFX Equifax Inc. $154.01 2020-01-02 05:39:26 $154.01 0% $0.00
EQIX Equinix Inc $591.96 2020-01-02 05:39:26 $591.96 0% $0.00
EQR Equity Residential $82.76 2020-01-02 05:39:26 $82.76 0% $0.00
ESS Essex Property Trust Inc $309.47 2020-01-02 05:39:26 $309.47 0% $0.00
EL Estee Lauder Companies Inc $205.34 2020-01-02 05:39:26 $205.34 0% $0.00
RE Everest Re Group Ltd $277.35 2020-01-02 05:39:26 $277.35 0% $0.00
EVRG Evergy Inc $71.37 2020-01-02 05:39:26 $71.37 0% $0.00
ES Eversource Energy $91.81 2020-01-02 05:39:26 $91.81 0% $0.00
EXC Exelon Corporation $47.73 2020-01-02 05:39:26 $47.73 0% $0.00
EXPE Expedia Group Inc $112.14 2020-01-02 05:39:26 $112.14 0% $0.00
EXPD Expeditors International of Washington $74.34 2020-01-02 05:39:26 $74.34 0% $0.00
ESRX EXPRESS SCRIPTS/SH $94.19 2020-01-02 05:39:26 $94.19 0% $0.00
EXR Extra Space Storage, Inc. $110.93 2020-01-02 05:39:26 $110.93 0% $0.00
XOM Exxon Mobil Corporation $66.32 2020-01-02 05:39:26 $66.32 0% $0.00
FFIV F5 Networks, Inc. $135.82 2020-01-02 05:39:26 $135.82 0% $0.00
FB Facebook, Inc. Common Stock $217.94 2020-01-02 05:39:26 $217.94 0% $0.00
FAST Fastenal Company $35.52 2020-01-02 05:39:26 $35.52 0% $0.00
FRT Federal Realty Investment Trust $129.81 2020-01-02 05:39:26 $129.81 0% $0.00
FDX FedEx Corporation $154.07 2020-01-02 05:39:26 $154.07 0% $0.00
FIS Fidelity National Information Servcs Inc $147.92 2020-01-02 05:39:26 $147.92 0% $0.00
FITB Fifth Third Bancorp $28.84 2020-01-02 05:39:26 $28.84 0% $0.00
FE FirstEnergy Corp. $50.47 2020-01-02 05:39:26 $50.47 0% $0.00
FISV Fiserv Inc $120.84 2020-01-02 05:39:26 $120.84 0% $0.00
FLT FleetCor Technologies, Inc. $320.63 2020-01-02 05:39:26 $320.63 0% $0.00
FLIR FLIR Systems, Inc. $54.29 2020-01-02 05:39:26 $54.29 0% $0.00
FLS Flowserve Corp $48.26 2020-01-02 05:39:26 $48.26 0% $0.00
FLR Fluor Corporation (NEW) $19.49 2020-01-02 05:39:26 $19.49 0% $0.00
FMC FMC Corp $95.68 2020-01-02 05:39:26 $95.68 0% $0.00
FL Foot Locker, Inc. $38.60 2020-01-02 05:39:26 $38.60 0% $0.00
F Ford Motor Company $9.00 2020-01-02 05:39:26 $9.00 0% $0.00
FTNT Fortinet Inc $117.99 2020-01-02 05:39:26 $117.99 0% $0.00
FTV Fortive Corp $76.91 2020-01-02 05:39:26 $76.91 0% $0.00
FBHS Fortune Brands Home & Security Inc $69.51 2020-01-02 05:39:26 $69.51 0% $0.00
BEN Franklin Resources, Inc. $25.26 2020-01-02 05:39:26 $25.26 0% $0.00
FCX Freeport-McMoRan Inc $11.84 2020-01-02 05:39:26 $11.84 0% $0.00
GPS Gap Inc $17.66 2020-01-02 05:39:26 $17.66 0% $0.00
GRMN Garmin Ltd. $99.59 2020-01-02 05:39:26 $99.59 0% $0.00
IT Gartner Inc $160.57 2020-01-02 05:39:26 $160.57 0% $0.00
GD General Dynamics Corporation $185.07 2020-01-02 05:39:26 $185.07 0% $0.00
GE General Electric Company $11.71 2020-01-02 05:39:26 $11.71 0% $0.00
GIS General Mills, Inc. $53.71 2020-01-02 05:39:26 $53.71 0% $0.00
GM General Motors Company $34.31 2020-01-02 05:39:26 $34.31 0% $0.00
GPC Genuine Parts Company $98.07 2020-01-02 05:39:26 $98.07 0% $0.00
GILD Gilead Sciences, Inc. $63.15 2020-01-02 05:39:26 $63.15 0% $0.00
GPN Global Payments Inc $198.77 2020-01-02 05:39:26 $198.77 0% $0.00
GS Goldman Sachs Group Inc $241.92 2020-01-02 05:39:26 $241.92 0% $0.00
GT Goodyear Tire & Rubber Co $14.20 2020-01-02 05:39:26 $14.20 0% $0.00
HRB H & R Block Inc $23.94 2020-01-02 05:39:26 $23.94 0% $0.00
HAL Halliburton Company $23.10 2020-01-02 05:39:26 $23.10 0% $0.00
HBI Hanesbrands Inc. $14.25 2020-01-02 05:39:26 $14.25 0% $0.00
HOG Harley-Davidson Inc $35.23 2020-01-02 05:39:26 $35.23 0% $0.00
HRS Harris Corporation $202.25 2020-01-02 05:39:26 $202.25 0% $0.00
HIG Hartford Financial Services Group Inc $58.98 2020-01-02 05:39:26 $58.98 0% $0.00
HAS Hasbro, Inc. $104.68 2020-01-02 05:39:26 $104.68 0% $0.00
HCA HCA Healthcare Inc $143.45 2020-01-02 05:39:26 $143.45 0% $0.00
HCP HCP, Inc. $34.59 2020-01-02 05:39:26 $34.59 0% $0.00
HP Helmerich & Payne, Inc. $42.23 2020-01-02 05:39:26 $42.23 0% $0.00
HSIC Henry Schein, Inc. $71.20 2020-01-02 05:39:26 $71.20 0% $0.00
HSY Hershey Co $154.68 2020-01-02 05:39:26 $154.68 0% $0.00
HES Hess Corp. $64.41 2020-01-02 05:39:26 $64.41 0% $0.00
HPE Hewlett Packard Enterprise Co $14.76 2020-01-02 05:39:26 $14.76 0% $0.00
HLT Hilton Hotels Corporation Common Stock $108.49 2020-01-02 05:39:26 $108.49 0% $0.00
HFC HollyFrontier Corp $46.53 2020-01-02 05:39:26 $46.53 0% $0.00
HOLX Hologic, Inc. $53.72 2020-01-02 05:39:26 $53.72 0% $0.00
HD Home Depot Inc $232.00 2020-01-02 05:39:26 $232.00 0% $0.00
HON Honeywell International Inc. $177.13 2020-01-02 05:39:26 $177.13 0% $0.00
HRL Hormel Foods Corp $47.23 2020-01-02 05:39:26 $47.23 0% $0.00
HST Host Hotels and Resorts Inc $17.08 2020-01-02 05:39:26 $17.08 0% $0.00
HPQ HP Inc $21.98 2020-01-02 05:39:26 $21.98 0% $0.00
HUM Humana Inc $356.90 2020-01-02 05:39:26 $356.90 0% $0.00
HBAN Huntington Bancshares Incorporated $13.72 2020-01-02 05:39:26 $13.72 0% $0.00
HII Huntington Ingalls Industries Inc $276.47 2020-01-02 05:39:26 $276.47 0% $0.00
IBM IBM Common Stock $140.56 2020-01-02 05:39:26 $140.56 0% $0.00
IDXX IDEXX Laboratories, Inc. $280.77 2020-01-02 05:39:26 $280.77 0% $0.00
INFO IHS Markit Ltd $79.89 2020-01-02 05:39:26 $79.89 0% $0.00
ITW Illinois Tool Works Inc. $176.30 2020-01-02 05:39:26 $176.30 0% $0.00
ILMN Illumina, Inc. $319.58 2020-01-02 05:39:26 $319.58 0% $0.00
INCY Incyte Corporation $76.74 2020-01-02 05:39:26 $76.74 0% $0.00
IR Ingersoll-Rand PLC $130.60 2020-01-02 05:39:26 $130.60 0% $0.00
INTC Intel Corporation $68.47 2020-01-02 05:39:26 $68.47 0% $0.00
ICE Intercontinental Exchange Inc $97.11 2020-01-02 05:39:26 $97.11 0% $0.00
IFF International Flavors & Fragrances Inc $135.79 2020-01-02 05:39:26 $135.79 0% $0.00
IP International Paper Co $43.53 2020-01-02 05:39:26 $43.53 0% $0.00
IPG Interpublic Group of Companies Inc $23.41 2020-01-02 05:39:26 $23.41 0% $0.00
INTU Intuit Inc. $288.08 2020-01-02 05:39:26 $288.08 0% $0.00
ISRG Intuitive Surgical, Inc. $589.20 2020-01-02 05:39:26 $589.20 0% $0.00
IVZ Invesco Ltd. $18.17 2020-01-02 05:39:26 $18.17 0% $0.00
IPGP IPG Photonics Corporation $144.33 2020-01-02 05:39:26 $144.33 0% $0.00
IQV Iqvia Holdings Inc $158.10 2020-01-02 05:39:26 $158.10 0% $0.00
IRM Iron Mountain Inc $31.55 2020-01-02 05:39:26 $31.55 0% $0.00
JBHT J B Hunt Transport Services Inc $115.71 2020-01-02 05:39:26 $115.71 0% $0.00
SJM J M Smucker Co $107.67 2020-01-02 05:39:26 $107.67 0% $0.00
JKHY Jack Henry & Associates, Inc. $151.25 2020-01-02 05:39:26 $151.25 0% $0.00
JEC Jacobs Engineering Group Inc $0.10 2020-01-02 05:39:26 $0.10 0% $0.00
JEF Jefferies Financial Group Inc $21.89 2020-01-02 05:39:26 $21.89 0% $0.00
JNJ Johnson & Johnson $148.32 2020-01-02 05:39:26 $148.32 0% $0.00
JCI Johnson Controls International PLC $41.35 2020-01-02 05:39:26 $41.35 0% $0.00
JPM JPMorgan Chase & Co. $133.15 2020-01-02 05:39:26 $133.15 0% $0.00
JNPR Juniper Networks, Inc. $24.58 2020-01-02 05:39:26 $24.58 0% $0.00
KSU Kansas City Southern $166.58 2020-01-02 05:39:26 $166.58 0% $0.00
K Kellogg Company $69.34 2020-01-02 05:39:26 $69.34 0% $0.00
KEY KeyCorp $19.29 2020-01-02 05:39:26 $19.29 0% $0.00
KEYS Keysight Technologies Inc $102.98 2020-01-02 05:39:26 $102.98 0% $0.00
KMB Kimberly Clark Corp $143.42 2020-01-02 05:39:26 $143.42 0% $0.00
KIM Kimco Realty Corp $20.35 2020-01-02 05:39:26 $20.35 0% $0.00
KMI Kinder Morgan Inc $21.56 2020-01-02 05:39:26 $21.56 0% $0.00
KLAC KLA-Tencor Corp $177.41 2020-01-08 09:55:12 $179.40 1.12% $177.41
KHC Kraft Heinz Co $30.41 2020-01-08 09:55:12 $30.41 0% $0.00
KR Kroger Co $28.19 2020-01-08 09:55:12 $28.19 0% $0.00
LB L Brands Inc $20.74 2020-01-08 09:55:12 $20.74 0% $0.00
LLL L3 Technologies Inc $0.10 2020-01-08 09:55:12 $0.10 0% $0.00
LH Laboratory Corp. of America Holdings $177.18 2020-01-08 09:55:12 $177.18 0% $0.00
LRCX Lam Research Corporation $306.54 2020-01-08 09:55:12 $306.54 0% $0.00
LW Lamb Weston Holdings Inc $90.69 2020-01-08 09:55:12 $90.69 0% $0.00
LEG Leggett & Platt, Inc. $50.88 2020-01-08 09:55:12 $50.88 0% $0.00
LEN Lennar Corporation $66.64 2020-01-08 09:55:12 $66.64 0% $0.00
LNC Lincoln National Corporation $56.55 2020-01-08 09:55:12 $56.55 0% $0.00
LIN Linde PLC $209.99 2020-01-08 09:55:12 $209.99 0% $0.00
LKQ LKQ Corporation $33.61 2020-01-08 09:55:12 $33.61 0% $0.00
LMT Lockheed Martin Corporation $432.50 2020-01-08 09:55:12 $432.50 0% $0.00
L Loews Corporation $51.35 2020-01-08 09:55:12 $51.35 0% $0.00
LYB LyondellBasell Industries NV $84.95 2020-01-08 09:55:12 $84.95 0% $0.00
MTB M&T Bank Corporation $171.49 2020-01-08 09:55:12 $171.49 0% $0.00
MAC Macerich Co $25.00 2020-01-08 09:55:12 $25.00 0% $0.00
MRO Marathon Oil Corporation $11.93 2020-01-08 09:55:12 $11.93 0% $0.00
MPC Marathon Petroleum Corp $54.49 2020-01-08 09:55:12 $54.49 0% $0.00
MAR Marriott International Inc $141.02 2020-01-08 09:55:12 $141.02 0% $0.00
MMC Marsh & McLennan Companies, Inc. $113.87 2020-01-08 09:55:12 $113.87 0% $0.00
MLM Martin Marietta Materials, Inc. $263.89 2020-01-08 09:55:12 $263.89 0% $0.00
MAS Masco Corp $48.55 2020-01-08 09:55:12 $48.55 0% $0.00
MA Mastercard Inc $298.59 2020-01-02 05:37:57 $323.67 8.4% $2,985.90
MAT Mattel, Inc. $14.28 2020-01-02 05:37:57 $14.28 0% $0.00
MXIM Maxim Integrated Products Inc. $62.56 2020-01-02 05:37:57 $62.56 0% $0.00
MKC MCCORMICK & CO /SH NV $172.67 2020-01-02 05:37:57 $172.67 0% $0.00
MCK McKesson Corporation $152.62 2020-01-02 05:37:57 $152.62 0% $0.00
MDT Medtronic PLC $119.26 2020-01-02 05:37:57 $119.26 0% $0.00
MRK Merck & Co., Inc. $85.98 2020-01-02 05:37:57 $85.98 0% $0.00
MET Metlife Inc $51.27 2020-01-02 05:37:57 $51.27 0% $0.00
MTD Mettler-Toledo International Inc. $819.95 2020-01-02 05:37:57 $819.95 0% $0.00
MGM MGM Resorts International $31.57 2020-01-02 05:37:57 $31.57 0% $0.00
KORS Michael Kors Holdings Ltd $37.92 2020-01-02 05:37:57 $37.92 0% $0.00
MCHP Microchip Technology Inc. $107.22 2020-01-02 05:37:57 $107.22 0% $0.00
MU Micron Technology, Inc. $57.76 2020-01-02 05:37:57 $57.76 0% $0.00
MSFT Microsoft Corporation $165.04 2020-01-02 05:37:57 $165.04 0% $0.00
MAA Mid-America Apartment Communities Inc $136.96 2020-01-02 05:37:57 $136.96 0% $0.00
MHK Mohawk Industries, Inc. $141.86 2020-01-02 05:37:57 $141.86 0% $0.00
TAP Molson Coors Brewing Co Class B $56.12 2020-01-02 05:37:57 $56.12 0% $0.00
MDLZ MONDELEZ INTERNATIONAL INC Common Stock $55.09 2020-01-02 05:37:57 $55.09 0% $0.00
MNST Monster Beverage Corp $67.10 2020-01-02 05:37:57 $67.10 0% $0.00
MS Morgan Stanley $54.55 2020-01-02 05:37:57 $54.55 0% $0.00
MOS Mosaic Co $19.14 2020-01-02 05:37:57 $19.14 0% $0.00
MSI Motorola Solutions Inc $179.66 2020-01-02 05:37:57 $179.66 0% $0.00
MSCI Msci Inc $276.11 2020-01-02 05:37:57 $276.11 0% $0.00
MYL Mylan NV $21.85 2020-01-02 05:37:57 $21.85 0% $0.00
NDAQ Nasdaq Inc $110.21 2020-01-02 05:37:57 $110.21 0% $0.00
NOV National-Oilwell Varco, Inc. $21.88 2020-01-02 05:37:57 $21.88 0% $0.00
NKTR Nektar Therapeutics $21.13 2020-01-02 05:37:57 $21.13 0% $0.00
NTAP NetApp Inc. $59.81 2020-01-02 05:37:57 $59.81 0% $0.00
NFLX Netflix, Inc. $335.66 2020-01-10 08:33:03 $353.16 5.21% $19,584.57
NWL Newell Brands Inc $19.89 2020-01-10 08:33:03 $19.89 0% $0.00
NFX Newfield Exploration Co. $9.00 2020-01-10 08:33:03 $9.00 0% $0.00
NEM Newmont Mining Corp $44.29 2020-01-10 08:33:03 $44.29 0% $0.00
NWSA News Corp Class A $13.94 2020-01-10 08:33:03 $13.94 0% $0.00
NWS News Corp Class B $14.35 2020-01-10 08:33:03 $14.35 0% $0.00
NEE NextEra Energy Inc $263.72 2020-01-10 08:33:03 $263.72 0% $0.00
NLSN Nielsen Holdings PLC $21.16 2020-01-10 08:33:03 $21.16 0% $0.00
NKE Nike Inc $101.65 2020-01-08 09:57:27 $102.03 0.37% $203.30
NI NiSource Inc. $29.08 2020-01-08 09:57:27 $29.08 0% $0.00
NBL Noble Energy, Inc. $21.67 2020-01-08 09:57:27 $21.67 0% $0.00
JWN Nordstrom, Inc. $38.67 2020-01-08 09:57:27 $38.67 0% $0.00
NSC Norfolk Southern Corp. $207.86 2020-01-08 09:57:27 $207.86 0% $0.00
NTRS Northern Trust Corporation $101.62 2020-01-08 09:57:27 $101.62 0% $0.00
NOC Northrop Grumman Corporation $381.64 2020-01-08 09:57:27 $381.64 0% $0.00
NCLH Norwegian Cruise Line Holdings Ltd $55.84 2020-01-08 09:57:27 $55.84 0% $0.00
NRG NRG Energy Inc $37.96 2020-01-08 09:57:27 $37.96 0% $0.00
NUE Nucor Corporation $50.33 2020-01-08 09:57:27 $50.33 0% $0.00
NVDA NVIDIA Corporation $250.48 2020-01-08 09:57:27 $250.48 0% $0.00
OXY Occidental Petroleum Corporation $42.22 2020-01-08 09:57:27 $42.22 0% $0.00
OMC Omnicom Group Inc. $77.70 2020-01-08 09:57:27 $77.70 0% $0.00
OKE ONEOK, Inc. $74.84 2020-01-08 09:57:27 $74.84 0% $0.00
ORCL Oracle Corporation $54.07 2020-01-08 09:57:27 $54.07 0% $0.00
PCAR PACCAR Inc $76.79 2020-01-08 09:57:27 $76.79 0% $0.00
PKG Packaging Corp Of America $105.65 2020-01-08 09:57:27 $105.65 0% $0.00
PH Parker-Hannifin Corp $198.28 2020-01-08 09:57:27 $198.28 0% $0.00
PAYX Paychex, Inc. $88.91 2020-01-08 09:57:27 $88.91 0% $0.00
PYPL Paypal Holdings Inc $116.98 2020-01-08 09:57:27 $116.98 0% $0.00
PNR Pentair PLC $46.20 2020-01-08 09:57:27 $46.20 0% $0.00
PEP PepsiCo, Inc. $142.92 2020-01-08 09:57:27 $142.92 0% $0.00
PKI PerkinElmer, Inc. $99.78 2020-01-08 09:57:27 $99.78 0% $0.00
PRGO Perrigo Company PLC $58.76 2020-01-08 09:57:27 $58.76 0% $0.00
PFE Pfizer Inc. $39.82 2020-01-08 09:57:27 $39.82 0% $0.00
PCG PG&E Corporation $14.27 2020-01-08 09:57:27 $14.27 0% $0.00
PM Philip Morris International Inc. $86.15 2020-01-08 09:57:27 $86.15 0% $0.00
PSX Phillips 66 $100.32 2020-01-08 09:57:27 $100.32 0% $0.00
PNW Pinnacle West Capital Corporation $97.12 2020-01-08 09:57:27 $97.12 0% $0.00
PXD Pioneer Natural Resources $142.03 2020-01-08 09:57:27 $142.03 0% $0.00
PNC PNC Financial Services Group Inc $150.38 2020-01-08 09:57:27 $150.38 0% $0.00
PPG PPG Industries, Inc. $125.81 2020-01-08 09:57:27 $125.81 0% $0.00
PPL PPL Corp $36.53 2020-01-08 09:57:27 $36.53 0% $0.00
PFG Principal Financial Group Inc $54.36 2020-01-08 09:57:27 $54.36 0% $0.00
PG Procter & Gamble Co $124.90 2020-01-02 05:41:26 $125.14 0.19% $1,249.00
PGR Progressive Corp $76.75 2020-01-02 05:41:26 $76.75 0% $0.00
PLD Prologis Inc $96.15 2020-01-02 05:41:26 $96.15 0% $0.00
PRU Prudential Financial Inc $93.52 2020-01-02 05:41:26 $93.52 0% $0.00
PEG Public Service Enterprise Group Inc. $61.66 2020-01-02 05:41:26 $61.66 0% $0.00
PSA Public Storage $224.47 2020-01-02 05:41:26 $224.47 0% $0.00
PHM PulteGroup, Inc. $43.71 2020-01-02 05:41:26 $43.71 0% $0.00
PVH PVH Corp $94.95 2020-01-02 05:41:26 $94.95 0% $0.00
QRVO Qorvo Inc $113.39 2020-01-02 05:41:26 $113.39 0% $0.00
QCOM QUALCOMM, Inc. $89.65 2020-01-02 05:41:26 $89.65 0% $0.00
PWR Quanta Services Inc $40.37 2020-01-02 05:41:26 $40.37 0% $0.00
DGX Quest Diagnostics Inc $107.79 2020-01-02 05:41:26 $107.79 0% $0.00
RL Ralph Lauren Corp $116.23 2020-01-02 05:41:26 $116.23 0% $0.00
RJF Raymond James Financial, Inc. $90.42 2020-01-02 05:41:26 $90.42 0% $0.00
RTN Raytheon Company $231.24 2020-01-02 05:41:26 $231.24 0% $0.00
O Realty Income Corp $77.13 2020-01-02 05:41:26 $77.13 0% $0.00
RHT Red Hat Inc $0.58 2020-01-02 05:41:26 $0.58 0% $0.00
REG Regency Centers Corp $63.79 2020-01-02 05:41:26 $63.79 0% $0.00
REGN Regeneron Pharmaceuticals Inc $345.28 2020-01-02 05:41:26 $345.28 0% $0.00
RF Regions Financial Corp $15.72 2020-01-02 05:41:26 $15.72 0% $0.00
RSG Republic Services, Inc. $94.64 2020-01-02 05:41:26 $94.64 0% $0.00
RMD ResMed Inc. $162.39 2020-01-02 05:41:26 $162.39 0% $0.00
RHI Robert Half International Inc. $61.95 2020-01-02 05:41:26 $61.95 0% $0.00
ROK Rockwell Automation $199.72 2020-01-02 05:41:26 $199.72 0% $0.00
ROL Rollins, Inc. $33.75 2020-01-10 06:57:33 $36.61 8.47% $1,687.50
ROP Roper Technologies Inc $376.84 2020-01-10 06:57:33 $376.84 0% $0.00
ROST Ross Stores, Inc. $115.76 2020-01-10 06:57:33 $115.76 0% $0.00
RCL Royal Caribbean Cruises Ltd $126.51 2020-01-10 06:57:33 $126.51 0% $0.00
SPGI S&P Global Inc $294.83 2020-01-10 06:57:33 $294.83 0% $0.00
CRM salesforce.com, inc. $182.11 2020-01-10 06:57:33 $182.11 0% $0.00
SBAC SBA Communications Corporation $253.15 2020-01-10 06:57:33 $253.15 0% $0.00
SCG SCANA Corporation $3.92 2020-01-10 06:57:33 $3.92 0% $0.00
SLB Schlumberger Limited. $35.77 2020-01-10 06:57:33 $35.77 0% $0.00
STX Seagate Technology PLC $63.23 2020-01-10 06:57:33 $63.23 0% $0.00
SEE Sealed Air Corp $37.03 2020-01-10 06:57:33 $37.03 0% $0.00
SRE Sempra Energy $159.76 2020-01-10 06:57:33 $159.76 0% $0.00
SHW Sherwin-Williams Co $594.84 2020-01-10 06:57:33 $594.84 0% $0.00
SPG Simon Property Group Inc $144.82 2020-01-10 06:57:33 $144.82 0% $0.00
SWKS Skyworks Solutions Inc $122.31 2020-01-10 06:57:33 $122.31 0% $0.00
SLG SL Green Realty Corp $93.36 2020-01-10 06:57:33 $93.36 0% $0.00
SNA Snap-on Incorporated $165.97 2020-01-10 06:57:33 $165.97 0% $0.00
SO Southern Co $69.44 2020-01-10 06:57:33 $69.44 0% $0.00
LUV Southwest Airlines Co $56.55 2020-01-10 06:57:33 $56.55 0% $0.00
SPY SPDR S&P 500 ETF $321.86 2020-01-02 00:49:11 $328.77 2.15% $9,977.66
SWK Stanley Black & Decker, Inc. $166.48 2020-01-02 00:49:11 $166.48 0% $0.00
SBUX Starbucks Corporation $92.03 2020-01-02 00:49:11 $92.03 0% $0.00
STT State Street Corp $78.34 2020-01-02 00:49:11 $78.34 0% $0.00
SYK Stryker Corporation $214.23 2020-01-02 00:49:11 $214.23 0% $0.00
SIVB SVB Financial Group $252.66 2020-01-02 00:49:11 $252.66 0% $0.00
SYMC Symantec Corporation $23.07 2020-01-02 00:49:11 $23.07 0% $0.00
SYF Synchrony Financial $32.63 2020-01-02 00:49:11 $32.63 0% $0.00
SNPS Synopsys, Inc. $154.05 2020-01-02 00:49:11 $154.05 0% $0.00
SYY SYSCO Corporation $82.63 2020-01-02 00:49:11 $82.63 0% $0.00
TROW T. Rowe Price Group Inc $131.18 2020-01-02 00:49:11 $131.18 0% $0.00
TTWO TAKE-TWO INTERACTIVE SOFTWARE, INC Common Stock $125.28 2020-01-02 00:49:11 $125.28 0% $0.00
TPR Tapestry Inc $27.29 2020-01-02 00:49:11 $27.29 0% $0.00
TGT Target Corporation $114.32 2020-01-02 00:49:11 $114.32 0% $0.00
TEL TE Connectivity Ltd $98.40 2020-01-02 00:49:11 $98.40 0% $0.00
FTI TechnipFMC PLC $17.97 2020-01-02 00:49:11 $17.97 0% $0.00
TSLA Tesla Inc $564.82 2020-01-02 00:49:11 $564.82 0% $0.00
TXN Texas Instruments Incorporated $130.52 2020-01-02 00:49:11 $130.52 0% $0.00
TXT Textron Inc. $44.70 2020-01-02 00:49:11 $44.70 0% $0.00
KO The Coca-Cola Co $57.68 2020-01-02 00:49:11 $57.68 0% $0.00
WU The Western Union Company $27.10 2020-01-02 00:49:11 $27.10 0% $0.00
TMO Thermo Fisher Scientific Inc. $333.68 2020-01-02 00:49:11 $333.68 0% $0.00
TIF Tiffany & Co. $134.29 2020-01-02 00:49:11 $134.29 0% $0.00
TJX TJX Companies Inc $61.19 2020-01-02 00:49:11 $61.19 0% $0.00
TSS Total System Services, Inc. $9.90 2020-01-02 00:49:11 $9.90 0% $0.00
TSCO Tractor Supply Company $93.57 2020-01-02 00:49:11 $93.57 0% $0.00
TDG TransDigm Group Incorporated $656.73 2020-01-02 00:49:11 $656.73 0% $0.00
TRV Travelers Companies Inc $134.78 2020-01-02 00:49:11 $134.78 0% $0.00
TRIP Tripadvisor Inc Common Stock $29.74 2020-01-02 00:49:11 $29.74 0% $0.00
FOXA Twenty-First Century Fox Inc Class A $36.61 2020-01-02 00:49:11 $36.61 0% $0.00
FOX Twenty-First Century Fox Inc Class B $36.04 2020-01-02 00:49:11 $36.04 0% $0.00
TWTR Twitter Inc $33.19 2020-01-02 00:49:11 $33.19 0% $0.00
TSN Tyson Foods, Inc. $85.93 2020-01-02 00:49:11 $85.93 0% $0.00
USB U.S. Bancorp $53.84 2020-01-02 00:49:11 $53.84 0% $0.00
UDR UDR, Inc. $48.18 2020-01-02 00:49:11 $48.18 0% $0.00
ULTA Ulta Beauty Inc $272.98 2020-01-02 00:49:11 $272.98 0% $0.00
UAA Under Armour Inc Class A $20.99 2020-01-02 00:49:11 $20.99 0% $0.00
UA Under Armour Inc Class C $18.61 2020-01-02 00:49:11 $18.61 0% $0.00
UNP Union Pacific Corporation $185.68 2020-01-02 00:49:11 $185.68 0% $0.00
UAL United Continental Holdings Inc $81.90 2020-01-02 00:49:11 $81.90 0% $0.00
UPS United Parcel Service, Inc. $116.66 2020-01-02 00:49:11 $116.66 0% $0.00
URI United Rentals, Inc. $151.65 2020-01-02 00:49:11 $151.65 0% $0.00
UTX United Technologies Corporation $153.19 2020-01-02 00:49:11 $153.19 0% $0.00
UNH UnitedHealth Group Inc $292.81 2020-01-02 00:49:11 $292.81 0% $0.00
UHS Universal Health Services, Inc. Class B $147.26 2020-01-02 00:49:11 $147.26 0% $0.00
UNM Unum Group $28.10 2020-01-02 00:49:11 $28.10 0% $0.00
VLO Valero Energy Corporation $89.26 2020-01-02 00:49:11 $89.26 0% $0.00
VEU Vanguard FTSE All-Wld ex-US ETF $53.75 2020-01-02 00:49:11 $53.84 0.17% $9,943.75
VOO Vanguard S&P 500 ETF $295.80 2020-01-02 00:49:11 $302.03 2.11% $19,523.32
BND Vanguard Total Bond Market ETF $83.86 2020-01-02 00:49:11 $84.91 1.25% $9,979.34
VTI Vanguard Total Stock Market ETF $163.62 2020-01-02 00:49:11 $167.09 2.12% $19,908.42
VT Vanguard Total World Stock ETF $80.99 2020-01-02 00:49:11 $81.92 1.15% $18,228.62
VAR Varian Medical Systems, Inc. $148.29 2020-01-02 00:49:11 $148.29 0% $0.00
VTR Ventas, Inc. $58.83 2020-01-02 00:49:11 $58.83 0% $0.00
VRSN Verisign, Inc. $212.75 2020-01-02 00:49:11 $212.75 0% $0.00
VRSK Verisk Analytics, Inc. $165.30 2020-01-02 00:49:11 $165.30 0% $0.00
VZ Verizon Communications Inc. $60.28 2020-01-02 00:49:11 $60.28 0% $0.00
VRTX Vertex Pharmaceuticals Incorporated $229.06 2020-01-02 00:49:11 $229.06 0% $0.00
VFC VF Corp $84.53 2020-01-02 00:49:11 $84.53 0% $0.00
VIAB Viacom, Inc. Class B $24.37 2020-01-02 00:49:11 $24.37 0% $0.00
V Visa Inc Class A $205.00 2020-01-02 00:49:11 $205.00 0% $0.00
VNO Vornado Realty Trust $67.31 2020-01-02 00:49:11 $67.31 0% $0.00
VMC Vulcan Materials Company $140.52 2020-01-02 00:49:11 $140.52 0% $0.00
GWW W W Grainger Inc $329.00 2020-01-02 00:49:11 $329.00 0% $0.00
WBA Walgreens Boots Alliance Inc $52.04 2020-01-02 00:49:11 $52.04 0% $0.00
WMT Walmart Inc $118.84 2020-01-02 05:42:42 $114.37 -3.76% $1,188.40
DIS Walt Disney Co $140.08 2020-01-02 05:42:42 $140.08 0% $0.00
WM Waste Management, Inc. $121.00 2020-01-02 05:42:42 $121.00 0% $0.00
WAT Waters Corporation $237.53 2020-01-02 05:42:42 $237.53 0% $0.00
WEC WEC Energy Group Inc $98.96 2020-01-02 05:42:42 $98.96 0% $0.00
WCG WellCare Health Plans, Inc. $349.92 2020-01-02 05:42:42 $349.92 0% $0.00
WFC Wells Fargo & Co $47.57 2020-01-02 05:42:42 $47.57 0% $0.00
WELL Welltower Inc $86.95 2020-01-02 05:42:42 $86.95 0% $0.00
WDC Western Digital Corp $69.52 2020-01-02 05:42:42 $69.52 0% $0.00
WRK Westrock Co $40.94 2020-01-02 05:42:42 $40.94 0% $0.00
WY Weyerhaeuser Co $30.53 2020-01-02 05:42:42 $30.53 0% $0.00
WHR Whirlpool Corporation $149.42 2020-01-02 05:42:42 $149.42 0% $0.00
WMB Williams Companies Inc $22.19 2020-01-02 05:42:42 $22.19 0% $0.00
WLTW Willis Towers Watson PLC $209.01 2020-01-02 05:42:42 $209.01 0% $0.00
WYNN Wynn Resorts, Limited $134.75 2020-01-02 05:42:42 $134.75 0% $0.00
XEL Xcel Energy Inc $67.17 2020-01-02 05:42:42 $67.17 0% $0.00
XRX Xerox Corp $35.52 2020-01-02 05:42:42 $35.52 0% $0.00
XLNX Xilinx, Inc. $100.80 2020-01-02 05:42:42 $100.80 0% $0.00
XYL Xylem Inc $81.48 2020-01-02 05:42:42 $81.48 0% $0.00
YUM Yum! Brands, Inc. $104.98 2020-01-02 05:42:42 $104.98 0% $0.00
ZBH Zimmer Biomet Holdings Inc $147.80 2020-01-02 05:42:42 $147.80 0% $0.00
ZION Zions Bancorp $46.63 2020-01-02 05:42:42 $46.63 0% $0.00
ZTS Zoetis Inc $136.31 2020-01-02 05:42:42 $136.31 0% $0.00